sensor_id;sensor_type;location;lat;lon;timestamp;temperature;humidity
69436;SHT31;56625;54.322;18.582;2023-06-14T00:00:12;15.08;64.05
69436;SHT31;56625;54.322;18.582;2023-06-14T00:03:02;15.08;64.26
69436;SHT31;56625;54.322;18.582;2023-06-14T00:05:32;15.06;64.47
69436;SHT31;56625;54.322;18.582;2023-06-14T00:08:00;15.04;64.67
69436;SHT31;56625;54.322;18.582;2023-06-14T00:10:28;15.02;64.90
69436;SHT31;56625;54.322;18.582;2023-06-14T00:12:58;14.99;65.17
69436;SHT31;56625;54.322;18.582;2023-06-14T00:15:27;14.94;65.17
69436;SHT31;56625;54.322;18.582;2023-06-14T00:17:56;14.92;65.43
69436;SHT31;56625;54.322;18.582;2023-06-14T00:20:29;14.90;65.67
69436;SHT31;56625;54.322;18.582;2023-06-14T00:23:00;14.88;65.72
69436;SHT31;56625;54.322;18.582;2023-06-14T00:25:29;14.86;65.57
69436;SHT31;56625;54.322;18.582;2023-06-14T00:27:57;14.87;65.87
69436;SHT31;56625;54.322;18.582;2023-06-14T00:30:25;14.88;65.99
69436;SHT31;56625;54.322;18.582;2023-06-14T00:32:58;14.91;66.19
69436;SHT31;56625;54.322;18.582;2023-06-14T00:35:27;14.97;66.26
69436;SHT31;56625;54.322;18.582;2023-06-14T00:37:55;15.03;66.36
69436;SHT31;56625;54.322;18.582;2023-06-14T00:40:23;15.07;66.38
69436;SHT31;56625;54.322;18.582;2023-06-14T00:42:51;15.12;66.67
69436;SHT31;56625;54.322;18.582;2023-06-14T00:45:19;15.16;67.00
69436;SHT31;56625;54.322;18.582;2023-06-14T00:47:47;15.19;66.98
69436;SHT31;56625;54.322;18.582;2023-06-14T00:50:18;15.22;67.01
69436;SHT31;56625;54.322;18.582;2023-06-14T00:52:50;15.25;66.90
69436;SHT31;56625;54.322;18.582;2023-06-14T00:55:18;15.30;66.99
69436;SHT31;56625;54.322;18.582;2023-06-14T00:57:47;15.32;67.07
69436;SHT31;56625;54.322;18.582;2023-06-14T01:00:16;15.38;67.32
69436;SHT31;56625;54.322;18.582;2023-06-14T01:02:45;15.42;67.48
69436;SHT31;56625;54.322;18.582;2023-06-14T01:05:13;15.46;67.54
69436;SHT31;56625;54.322;18.582;2023-06-14T01:11:02;15.56;67.79
69436;SHT31;56625;54.322;18.582;2023-06-14T01:13:41;15.60;67.81
69436;SHT31;56625;54.322;18.582;2023-06-14T01:16:13;15.63;67.50
69436;SHT31;56625;54.322;18.582;2023-06-14T01:18:42;15.64;67.44
69436;SHT31;56625;54.322;18.582;2023-06-14T01:21:24;15.65;67.46
69436;SHT31;56625;54.322;18.582;2023-06-14T01:23:53;15.66;67.48
69436;SHT31;56625;54.322;18.582;2023-06-14T01:26:22;15.65;67.58
69436;SHT31;56625;54.322;18.582;2023-06-14T01:28:51;15.67;67.66
69436;SHT31;56625;54.322;18.582;2023-06-14T01:31:26;15.68;67.67
69436;SHT31;56625;54.322;18.582;2023-06-14T01:33:54;15.68;67.71
69436;SHT31;56625;54.322;18.582;2023-06-14T01:36:22;15.65;67.89
69436;SHT31;56625;54.322;18.582;2023-06-14T01:38:55;15.63;68.03
69436;SHT31;56625;54.322;18.582;2023-06-14T01:41:24;15.61;68.25
69436;SHT31;56625;54.322;18.582;2023-06-14T01:43:52;15.60;68.21
69436;SHT31;56625;54.322;18.582;2023-06-14T01:46:23;15.58;68.28
69436;SHT31;56625;54.322;18.582;2023-06-14T01:48:53;15.56;68.56
69436;SHT31;56625;54.322;18.582;2023-06-14T01:51:21;15.54;68.63
69436;SHT31;56625;54.322;18.582;2023-06-14T01:53:52;15.53;68.66
69436;SHT31;56625;54.322;18.582;2023-06-14T01:56:22;15.52;69.17
69436;SHT31;56625;54.322;18.582;2023-06-14T01:58:53;15.52;69.37
69436;SHT31;56625;54.322;18.582;2023-06-14T02:01:21;15.52;69.38
69436;SHT31;56625;54.322;18.582;2023-06-14T02:03:49;15.52;69.40
69436;SHT31;56625;54.322;18.582;2023-06-14T02:06:18;15.50;69.26
69436;SHT31;56625;54.322;18.582;2023-06-14T02:08:46;15.49;69.26
69436;SHT31;56625;54.322;18.582;2023-06-14T02:11:14;15.48;69.31
69436;SHT31;56625;54.322;18.582;2023-06-14T02:13:45;15.48;69.39
69436;SHT31;56625;54.322;18.582;2023-06-14T02:16:16;15.49;69.57
69436;SHT31;56625;54.322;18.582;2023-06-14T02:18:45;15.50;69.69
69436;SHT31;56625;54.322;18.582;2023-06-14T02:21:12;15.49;70.02
69436;SHT31;56625;54.322;18.582;2023-06-14T02:23:40;15.46;70.01
69436;SHT31;56625;54.322;18.582;2023-06-14T02:26:09;15.47;70.17
69436;SHT31;56625;54.322;18.582;2023-06-14T02:28:37;15.47;70.09
69436;SHT31;56625;54.322;18.582;2023-06-14T02:31:05;15.50;70.44
69436;SHT31;56625;54.322;18.582;2023-06-14T02:33:34;15.52;70.33
69436;SHT31;56625;54.322;18.582;2023-06-14T02:36:02;15.55;70.46
69436;SHT31;56625;54.322;18.582;2023-06-14T02:38:33;15.58;70.65
69436;SHT31;56625;54.322;18.582;2023-06-14T02:41:01;15.61;70.47
69436;SHT31;56625;54.322;18.582;2023-06-14T02:43:30;15.65;70.53
69436;SHT31;56625;54.322;18.582;2023-06-14T02:45:57;15.69;70.53
69436;SHT31;56625;54.322;18.582;2023-06-14T02:48:25;15.74;70.45
69436;SHT31;56625;54.322;18.582;2023-06-14T02:50:55;15.80;70.42
69436;SHT31;56625;54.322;18.582;2023-06-14T02:53:24;16.01;70.42
69436;SHT31;56625;54.322;18.582;2023-06-14T02:55:52;16.26;69.92
69436;SHT31;56625;54.322;18.582;2023-06-14T02:58:20;16.46;69.54
69436;SHT31;56625;54.322;18.582;2023-06-14T03:00:48;16.69;69.12
69436;SHT31;56625;54.322;18.582;2023-06-14T03:03:16;16.89;68.48
69436;SHT31;56625;54.322;18.582;2023-06-14T03:05:46;16.98;68.11
69436;SHT31;56625;54.322;18.582;2023-06-14T03:08:17;16.98;68.03
69436;SHT31;56625;54.322;18.582;2023-06-14T03:10:47;16.98;68.00
69436;SHT31;56625;54.322;18.582;2023-06-14T03:13:16;16.97;68.07
69436;SHT31;56625;54.322;18.582;2023-06-14T03:15:44;16.97;68.07
69436;SHT31;56625;54.322;18.582;2023-06-14T03:18:12;16.94;68.08
69436;SHT31;56625;54.322;18.582;2023-06-14T03:20:42;16.91;68.19
69436;SHT31;56625;54.322;18.582;2023-06-14T03:23:13;16.89;68.21
69436;SHT31;56625;54.322;18.582;2023-06-14T03:25:40;16.91;68.33
69436;SHT31;56625;54.322;18.582;2023-06-14T03:28:09;16.88;68.39
69436;SHT31;56625;54.322;18.582;2023-06-14T03:30:37;16.86;68.51
69436;SHT31;56625;54.322;18.582;2023-06-14T03:33:06;16.85;68.56
69436;SHT31;56625;54.322;18.582;2023-06-14T03:35:34;16.84;68.62
69436;SHT31;56625;54.322;18.582;2023-06-14T03:38:02;16.82;68.89
69436;SHT31;56625;54.322;18.582;2023-06-14T03:40:31;16.79;69.06
69436;SHT31;56625;54.322;18.582;2023-06-14T03:42:59;16.78;69.16
69436;SHT31;56625;54.322;18.582;2023-06-14T03:45:27;16.76;69.17
69436;SHT31;56625;54.322;18.582;2023-06-14T03:47:55;16.75;69.21
69436;SHT31;56625;54.322;18.582;2023-06-14T03:50:24;16.75;69.32
69436;SHT31;56625;54.322;18.582;2023-06-14T03:52:52;16.76;69.38
69436;SHT31;56625;54.322;18.582;2023-06-14T03:55:21;16.75;69.69
69436;SHT31;56625;54.322;18.582;2023-06-14T03:58:08;16.75;69.71
69436;SHT31;56625;54.322;18.582;2023-06-14T04:00:36;16.77;69.71
69436;SHT31;56625;54.322;18.582;2023-06-14T04:03:05;16.76;69.74
69436;SHT31;56625;54.322;18.582;2023-06-14T04:05:33;16.75;69.81
69436;SHT31;56625;54.322;18.582;2023-06-14T04:08:02;16.78;69.80
69436;SHT31;56625;54.322;18.582;2023-06-14T04:10:30;16.83;69.77
69436;SHT31;56625;54.322;18.582;2023-06-14T04:12:58;16.85;69.73
69436;SHT31;56625;54.322;18.582;2023-06-14T04:15:26;16.84;69.82
69436;SHT31;56625;54.322;18.582;2023-06-14T04:17:55;16.81;69.84
69436;SHT31;56625;54.322;18.582;2023-06-14T04:20:25;16.81;69.83
69436;SHT31;56625;54.322;18.582;2023-06-14T04:22:56;16.84;69.74
69436;SHT31;56625;54.322;18.582;2023-06-14T04:25:24;16.91;69.64
69436;SHT31;56625;54.322;18.582;2023-06-14T04:27:54;16.94;69.58
69436;SHT31;56625;54.322;18.582;2023-06-14T04:30:22;16.99;69.55
69436;SHT31;56625;54.322;18.582;2023-06-14T04:32:53;17.05;69.42
69436;SHT31;56625;54.322;18.582;2023-06-14T04:35:23;17.11;69.40
69436;SHT31;56625;54.322;18.582;2023-06-14T04:37:53;17.20;69.25
69436;SHT31;56625;54.322;18.582;2023-06-14T04:40:21;17.29;69.06
69436;SHT31;56625;54.322;18.582;2023-06-14T04:42:48;17.32;68.73
69436;SHT31;56625;54.322;18.582;2023-06-14T04:45:18;17.33;68.66
69436;SHT31;56625;54.322;18.582;2023-06-14T04:47:46;17.34;68.64
69436;SHT31;56625;54.322;18.582;2023-06-14T04:50:15;17.36;68.62
69436;SHT31;56625;54.322;18.582;2023-06-14T04:52:44;17.40;68.50
69436;SHT31;56625;54.322;18.582;2023-06-14T04:55:12;17.44;68.48
69436;SHT31;56625;54.322;18.582;2023-06-14T04:57:41;17.51;68.32
69436;SHT31;56625;54.322;18.582;2023-06-14T05:00:09;17.62;68.05
69436;SHT31;56625;54.322;18.582;2023-06-14T05:02:40;17.79;67.83
69436;SHT31;56625;54.322;18.582;2023-06-14T05:05:08;17.98;67.57
69436;SHT31;56625;54.322;18.582;2023-06-14T05:07:36;18.13;66.91
69436;SHT31;56625;54.322;18.582;2023-06-14T05:10:09;18.29;66.54
69436;SHT31;56625;54.322;18.582;2023-06-14T05:12:38;18.39;65.82
69436;SHT31;56625;54.322;18.582;2023-06-14T05:15:06;18.42;65.34
69436;SHT31;56625;54.322;18.582;2023-06-14T05:17:36;18.46;65.42
69436;SHT31;56625;54.322;18.582;2023-06-14T05:20:06;18.54;65.33
69436;SHT31;56625;54.322;18.582;2023-06-14T05:22:35;18.62;64.85
69436;SHT31;56625;54.322;18.582;2023-06-14T05:25:03;18.62;64.70
69436;SHT31;56625;54.322;18.582;2023-06-14T05:27:33;18.65;64.46
69436;SHT31;56625;54.322;18.582;2023-06-14T05:30:03;18.64;64.25
69436;SHT31;56625;54.322;18.582;2023-06-14T05:32:31;18.68;64.23
69436;SHT31;56625;54.322;18.582;2023-06-14T05:35:00;18.74;63.73
69436;SHT31;56625;54.322;18.582;2023-06-14T05:37:28;18.76;63.74
69436;SHT31;56625;54.322;18.582;2023-06-14T05:39:57;18.81;63.92
69436;SHT31;56625;54.322;18.582;2023-06-14T05:42:25;18.93;63.68
69436;SHT31;56625;54.322;18.582;2023-06-14T05:45:27;19.08;63.19
69436;SHT31;56625;54.322;18.582;2023-06-14T05:48:05;19.21;62.64
69436;SHT31;56625;54.322;18.582;2023-06-14T05:50:35;19.39;62.32
69436;SHT31;56625;54.322;18.582;2023-06-14T05:53:05;19.56;61.97
69436;SHT31;56625;54.322;18.582;2023-06-14T05:56:05;19.81;60.58
69436;SHT31;56625;54.322;18.582;2023-06-14T05:58:46;19.88;59.22
69436;SHT31;56625;54.322;18.582;2023-06-14T06:01:17;20.00;60.00
69436;SHT31;56625;54.322;18.582;2023-06-14T06:03:47;20.16;59.16
69436;SHT31;56625;54.322;18.582;2023-06-14T06:06:16;20.31;59.16
69436;SHT31;56625;54.322;18.582;2023-06-14T06:08:47;20.42;58.02
69436;SHT31;56625;54.322;18.582;2023-06-14T06:11:17;20.47;57.59
69436;SHT31;56625;54.322;18.582;2023-06-14T06:13:45;20.58;57.23
69436;SHT31;56625;54.322;18.582;2023-06-14T06:16:14;20.64;56.76
69436;SHT31;56625;54.322;18.582;2023-06-14T06:18:43;20.75;57.83
69436;SHT31;56625;54.322;18.582;2023-06-14T06:21:12;20.90;56.05
69436;SHT31;56625;54.322;18.582;2023-06-14T06:24:06;20.95;54.98
69436;SHT31;56625;54.322;18.582;2023-06-14T06:26:36;20.96;55.42
69436;SHT31;56625;54.322;18.582;2023-06-14T06:29:04;20.97;54.48
69436;SHT31;56625;54.322;18.582;2023-06-14T06:31:33;20.90;53.61
69436;SHT31;56625;54.322;18.582;2023-06-14T06:34:02;20.92;54.24
69436;SHT31;56625;54.322;18.582;2023-06-14T06:36:31;21.06;53.40
69436;SHT31;56625;54.322;18.582;2023-06-14T06:38:59;21.14;53.13
69436;SHT31;56625;54.322;18.582;2023-06-14T06:41:34;21.30;52.88
69436;SHT31;56625;54.322;18.582;2023-06-14T06:44:05;21.40;52.51
69436;SHT31;56625;54.322;18.582;2023-06-14T06:46:35;21.43;52.02
69436;SHT31;56625;54.322;18.582;2023-06-14T06:49:08;21.52;50.36
69436;SHT31;56625;54.322;18.582;2023-06-14T06:51:43;21.69;50.39
69436;SHT31;56625;54.322;18.582;2023-06-14T06:54:26;21.85;49.34
69436;SHT31;56625;54.322;18.582;2023-06-14T06:56:55;21.85;46.41
69436;SHT31;56625;54.322;18.582;2023-06-14T06:59:24;21.76;45.74
69436;SHT31;56625;54.322;18.582;2023-06-14T07:01:52;21.67;45.78
69436;SHT31;56625;54.322;18.582;2023-06-14T07:04:21;21.66;46.37
69436;SHT31;56625;54.322;18.582;2023-06-14T07:06:50;21.75;45.71
69436;SHT31;56625;54.322;18.582;2023-06-14T07:09:18;21.75;46.21
69436;SHT31;56625;54.322;18.582;2023-06-14T07:11:51;21.78;47.18
69436;SHT31;56625;54.322;18.582;2023-06-14T07:14:22;21.78;46.63
69436;SHT31;56625;54.322;18.582;2023-06-14T07:16:52;21.76;47.46
69436;SHT31;56625;54.322;18.582;2023-06-14T07:19:20;21.79;47.72
69436;SHT31;56625;54.322;18.582;2023-06-14T07:21:48;21.85;48.17
69436;SHT31;56625;54.322;18.582;2023-06-14T07:24:16;21.92;47.78
69436;SHT31;56625;54.322;18.582;2023-06-14T07:26:44;21.86;46.89
69436;SHT31;56625;54.322;18.582;2023-06-14T07:29:13;21.90;47.76
69436;SHT31;56625;54.322;18.582;2023-06-14T07:31:53;22.03;47.72
69436;SHT31;56625;54.322;18.582;2023-06-14T07:34:46;22.10;47.14
69436;SHT31;56625;54.322;18.582;2023-06-14T07:37:25;22.11;45.57
69436;SHT31;56625;54.322;18.582;2023-06-14T07:40:04;22.13;46.18
69436;SHT31;56625;54.322;18.582;2023-06-14T07:42:55;22.15;47.04
69436;SHT31;56625;54.322;18.582;2023-06-14T07:49:33;22.27;46.66
69436;SHT31;56625;54.322;18.582;2023-06-14T07:52:15;22.30;46.32
69436;SHT31;56625;54.322;18.582;2023-06-14T07:55:02;22.29;45.44
69436;SHT31;56625;54.322;18.582;2023-06-14T07:57:42;22.25;44.75
69436;SHT31;56625;54.322;18.582;2023-06-14T08:00:20;22.12;44.88
69436;SHT31;56625;54.322;18.582;2023-06-14T08:03:21;22.02;45.87
69436;SHT31;56625;54.322;18.582;2023-06-14T08:06:22;22.03;46.11
69436;SHT31;56625;54.322;18.582;2023-06-14T08:09:17;22.02;45.65
69436;SHT31;56625;54.322;18.582;2023-06-14T08:12:55;22.04;44.45
69436;SHT31;56625;54.322;18.582;2023-06-14T08:15:39;22.19;44.64
69436;SHT31;56625;54.322;18.582;2023-06-14T08:18:32;22.31;43.17
69436;SHT31;56625;54.322;18.582;2023-06-14T08:21:11;22.37;42.80
69436;SHT31;56625;54.322;18.582;2023-06-14T08:24:29;22.59;41.82
69436;SHT31;56625;54.322;18.582;2023-06-14T08:27:33;22.74;41.05
69436;SHT31;56625;54.322;18.582;2023-06-14T08:30:57;22.87;40.38
69436;SHT31;56625;54.322;18.582;2023-06-14T08:34:09;22.88;40.33
69436;SHT31;56625;54.322;18.582;2023-06-14T08:37:11;22.89;41.01
69436;SHT31;56625;54.322;18.582;2023-06-14T08:43:14;22.69;40.80
69436;SHT31;56625;54.322;18.582;2023-06-14T08:45:58;22.67;40.98
69436;SHT31;56625;54.322;18.582;2023-06-14T08:48:44;22.55;41.62
69436;SHT31;56625;54.322;18.582;2023-06-14T08:51:17;22.55;42.05
69436;SHT31;56625;54.322;18.582;2023-06-14T08:54:05;22.52;41.91
69436;SHT31;56625;54.322;18.582;2023-06-14T08:56:42;22.48;41.97
69436;SHT31;56625;54.322;18.582;2023-06-14T08:59:39;22.50;41.74
69436;SHT31;56625;54.322;18.582;2023-06-14T09:02:35;22.49;41.82
69436;SHT31;56625;54.322;18.582;2023-06-14T09:05:21;22.50;41.81
69436;SHT31;56625;54.322;18.582;2023-06-14T09:08:48;22.57;42.61
69436;SHT31;56625;54.322;18.582;2023-06-14T09:11:21;22.72;42.67
69436;SHT31;56625;54.322;18.582;2023-06-14T09:13:54;22.85;41.78
69436;SHT31;56625;54.322;18.582;2023-06-14T09:16:25;22.97;41.24
69436;SHT31;56625;54.322;18.582;2023-06-14T09:19:00;23.02;40.06
69436;SHT31;56625;54.322;18.582;2023-06-14T09:21:34;22.97;39.19
69436;SHT31;56625;54.322;18.582;2023-06-14T09:24:49;22.92;40.32
69436;SHT31;56625;54.322;18.582;2023-06-14T09:27:25;23.01;40.57
69436;SHT31;56625;54.322;18.582;2023-06-14T09:29:55;23.04;39.99
69436;SHT31;56625;54.322;18.582;2023-06-14T09:32:27;22.98;40.15
69436;SHT31;56625;54.322;18.582;2023-06-14T09:35:02;22.95;40.10
69436;SHT31;56625;54.322;18.582;2023-06-14T09:37:36;22.88;40.54
69436;SHT31;56625;54.322;18.582;2023-06-14T09:40:08;22.86;40.47
69436;SHT31;56625;54.322;18.582;2023-06-14T09:42:39;22.83;41.64
69436;SHT31;56625;54.322;18.582;2023-06-14T09:45:10;22.89;41.25
69436;SHT31;56625;54.322;18.582;2023-06-14T09:47:43;23.07;41.31
69436;SHT31;56625;54.322;18.582;2023-06-14T09:50:32;23.33;40.36
69436;SHT31;56625;54.322;18.582;2023-06-14T09:53:09;23.41;40.58
69436;SHT31;56625;54.322;18.582;2023-06-14T09:55:42;23.37;41.64
69436;SHT31;56625;54.322;18.582;2023-06-14T09:58:11;23.30;41.68
69436;SHT31;56625;54.322;18.582;2023-06-14T10:00:44;23.27;41.47
69436;SHT31;56625;54.322;18.582;2023-06-14T10:03:21;23.31;41.66
69436;SHT31;56625;54.322;18.582;2023-06-14T10:06:10;23.52;40.80
69436;SHT31;56625;54.322;18.582;2023-06-14T10:08:45;23.75;40.92
69436;SHT31;56625;54.322;18.582;2023-06-14T10:11:20;24.03;40.38
69436;SHT31;56625;54.322;18.582;2023-06-14T10:13:54;24.38;38.37
69436;SHT31;56625;54.322;18.582;2023-06-14T10:16:34;24.50;36.76
69436;SHT31;56625;54.322;18.582;2023-06-14T10:19:42;24.27;36.68
69436;SHT31;56625;54.322;18.582;2023-06-14T10:22:35;24.15;38.15
69436;SHT31;56625;54.322;18.582;2023-06-14T10:25:30;24.08;37.81
69436;SHT31;56625;54.322;18.582;2023-06-14T10:28:18;24.15;38.25
69436;SHT31;56625;54.322;18.582;2023-06-14T10:33:49;24.68;39.48
69436;SHT31;56625;54.322;18.582;2023-06-14T10:36:25;24.94;37.51
69436;SHT31;56625;54.322;18.582;2023-06-14T10:39:15;25.05;37.53
69436;SHT31;56625;54.322;18.582;2023-06-14T10:41:52;25.09;37.95
69436;SHT31;56625;54.322;18.582;2023-06-14T10:44:41;25.22;38.88
69436;SHT31;56625;54.322;18.582;2023-06-14T10:47:26;25.24;37.08
69436;SHT31;56625;54.322;18.582;2023-06-14T10:50:05;25.36;36.65
69436;SHT31;56625;54.322;18.582;2023-06-14T10:52:44;25.57;35.22
69436;SHT31;56625;54.322;18.582;2023-06-14T10:55:16;25.65;34.72
69436;SHT31;56625;54.322;18.582;2023-06-14T10:57:48;25.65;35.29
69436;SHT31;56625;54.322;18.582;2023-06-14T11:00:34;25.49;36.78
69436;SHT31;56625;54.322;18.582;2023-06-14T11:05:56;25.24;34.77
69436;SHT31;56625;54.322;18.582;2023-06-14T11:08:27;25.17;36.40
69436;SHT31;56625;54.322;18.582;2023-06-14T11:11:12;25.09;36.19
69436;SHT31;56625;54.322;18.582;2023-06-14T11:13:44;25.07;35.84
69436;SHT31;56625;54.322;18.582;2023-06-14T11:16:22;25.09;35.92
69436;SHT31;56625;54.322;18.582;2023-06-14T11:18:56;25.17;36.46
69436;SHT31;56625;54.322;18.582;2023-06-14T11:21:24;25.13;36.35
69436;SHT31;56625;54.322;18.582;2023-06-14T11:23:59;25.07;36.31
69436;SHT31;56625;54.322;18.582;2023-06-14T11:26:29;25.09;35.71
69436;SHT31;56625;54.322;18.582;2023-06-14T11:28:59;25.08;34.85
69436;SHT31;56625;54.322;18.582;2023-06-14T11:31:33;25.18;34.69
69436;SHT31;56625;54.322;18.582;2023-06-14T11:34:04;25.15;35.43
69436;SHT31;56625;54.322;18.582;2023-06-14T11:36:34;24.95;35.98
69436;SHT31;56625;54.322;18.582;2023-06-14T11:39:04;24.88;35.45
69436;SHT31;56625;54.322;18.582;2023-06-14T11:41:55;24.85;36.90
69436;SHT31;56625;54.322;18.582;2023-06-14T11:44:34;24.95;36.70
69436;SHT31;56625;54.322;18.582;2023-06-14T11:47:05;25.01;36.36
69436;SHT31;56625;54.322;18.582;2023-06-14T11:49:37;24.87;36.13
69436;SHT31;56625;54.322;18.582;2023-06-14T11:52:18;25.01;37.67
69436;SHT31;56625;54.322;18.582;2023-06-14T11:54:48;25.24;37.71
69436;SHT31;56625;54.322;18.582;2023-06-14T11:57:25;25.31;39.42
69436;SHT31;56625;54.322;18.582;2023-06-14T11:59:56;25.33;36.57
69436;SHT31;56625;54.322;18.582;2023-06-14T12:02:31;25.32;37.28
69436;SHT31;56625;54.322;18.582;2023-06-14T12:05:04;25.44;39.39
69436;SHT31;56625;54.322;18.582;2023-06-14T12:07:38;25.49;39.12
69436;SHT31;56625;54.322;18.582;2023-06-14T12:10:08;25.51;37.09
69436;SHT31;56625;54.322;18.582;2023-06-14T12:12:38;25.35;36.90
69436;SHT31;56625;54.322;18.582;2023-06-14T12:15:10;25.14;35.97
69436;SHT31;56625;54.322;18.582;2023-06-14T12:17:42;24.76;37.89
69436;SHT31;56625;54.322;18.582;2023-06-14T12:20:16;24.32;38.06
69436;SHT31;56625;54.322;18.582;2023-06-14T12:22:55;24.13;41.72
69436;SHT31;56625;54.322;18.582;2023-06-14T12:25:33;24.07;40.91
69436;SHT31;56625;54.322;18.582;2023-06-14T12:28:17;24.14;39.53
69436;SHT31;56625;54.322;18.582;2023-06-14T12:30:49;24.17;39.28
69436;SHT31;56625;54.322;18.582;2023-06-14T12:33:21;24.19;39.45
69436;SHT31;56625;54.322;18.582;2023-06-14T12:36:03;24.25;37.87
69436;SHT31;56625;54.322;18.582;2023-06-14T12:38:36;24.26;38.49
69436;SHT31;56625;54.322;18.582;2023-06-14T12:41:13;24.05;38.56
69436;SHT31;56625;54.322;18.582;2023-06-14T12:43:48;24.13;39.19
69436;SHT31;56625;54.322;18.582;2023-06-14T12:46:26;24.27;39.66
69436;SHT31;56625;54.322;18.582;2023-06-14T12:49:07;24.22;39.60
69436;SHT31;56625;54.322;18.582;2023-06-14T12:51:40;23.99;39.14
69436;SHT31;56625;54.322;18.582;2023-06-14T12:54:09;23.79;39.55
69436;SHT31;56625;54.322;18.582;2023-06-14T12:56:39;23.69;40.43
69436;SHT31;56625;54.322;18.582;2023-06-14T12:59:09;23.72;41.15
69436;SHT31;56625;54.322;18.582;2023-06-14T13:01:41;23.83;41.30
69436;SHT31;56625;54.322;18.582;2023-06-14T13:04:15;23.87;39.34
69436;SHT31;56625;54.322;18.582;2023-06-14T13:06:46;23.79;39.20
69436;SHT31;56625;54.322;18.582;2023-06-14T13:09:32;23.70;40.28
69436;SHT31;56625;54.322;18.582;2023-06-14T13:12:05;23.67;39.92
69436;SHT31;56625;54.322;18.582;2023-06-14T13:14:41;23.69;39.63
69436;SHT31;56625;54.322;18.582;2023-06-14T13:17:14;23.76;40.05
69436;SHT31;56625;54.322;18.582;2023-06-14T13:19:46;23.82;40.59
69436;SHT31;56625;54.322;18.582;2023-06-14T13:22:18;23.98;40.73
69436;SHT31;56625;54.322;18.582;2023-06-14T13:24:51;24.02;40.32
69436;SHT31;56625;54.322;18.582;2023-06-14T13:27:26;23.89;40.15
69436;SHT31;56625;54.322;18.582;2023-06-14T13:29:56;23.83;38.84
69436;SHT31;56625;54.322;18.582;2023-06-14T13:32:27;23.72;39.84
69436;SHT31;56625;54.322;18.582;2023-06-14T13:34:56;23.53;40.47
69436;SHT31;56625;54.322;18.582;2023-06-14T13:37:26;23.26;41.61
69436;SHT31;56625;54.322;18.582;2023-06-14T13:39:54;23.07;42.67
69436;SHT31;56625;54.322;18.582;2023-06-14T13:42:23;22.76;44.44
69436;SHT31;56625;54.322;18.582;2023-06-14T13:44:54;22.47;46.67
69436;SHT31;56625;54.322;18.582;2023-06-14T13:47:29;22.30;47.26
69436;SHT31;56625;54.322;18.582;2023-06-14T13:50:04;22.12;47.12
69436;SHT31;56625;54.322;18.582;2023-06-14T13:52:36;21.98;46.88
69436;SHT31;56625;54.322;18.582;2023-06-14T13:55:05;21.96;47.31
69436;SHT31;56625;54.322;18.582;2023-06-14T13:57:52;21.92;47.62
69436;SHT31;56625;54.322;18.582;2023-06-14T14:00:59;21.92;47.13
69436;SHT31;56625;54.322;18.582;2023-06-14T14:03:29;22.01;47.11
69436;SHT31;56625;54.322;18.582;2023-06-14T14:06:00;22.05;48.02
69436;SHT31;56625;54.322;18.582;2023-06-14T14:08:36;22.10;48.85
69436;SHT31;56625;54.322;18.582;2023-06-14T14:11:08;22.22;48.64
69436;SHT31;56625;54.322;18.582;2023-06-14T14:13:37;22.47;48.91
69436;SHT31;56625;54.322;18.582;2023-06-14T14:16:15;22.58;47.53
69436;SHT31;56625;54.322;18.582;2023-06-14T14:18:47;22.64;48.16
69436;SHT31;56625;54.322;18.582;2023-06-14T14:21:47;22.73;46.37
69436;SHT31;56625;54.322;18.582;2023-06-14T14:24:29;22.49;47.07
69436;SHT31;56625;54.322;18.582;2023-06-14T14:31:44;22.24;47.30
69436;SHT31;56625;54.322;18.582;2023-06-14T14:34:45;22.19;46.88
69436;SHT31;56625;54.322;18.582;2023-06-14T14:37:52;22.01;48.01
69436;SHT31;56625;54.322;18.582;2023-06-14T14:41:10;21.92;48.16
69436;SHT31;56625;54.322;18.582;2023-06-14T14:43:40;21.95;47.52
69436;SHT31;56625;54.322;18.582;2023-06-14T14:46:16;21.97;46.35
69436;SHT31;56625;54.322;18.582;2023-06-14T14:49:01;21.86;45.90
69436;SHT31;56625;54.322;18.582;2023-06-14T14:51:34;21.81;45.50
69436;SHT31;56625;54.322;18.582;2023-06-14T14:54:07;21.75;45.96
69436;SHT31;56625;54.322;18.582;2023-06-14T14:56:46;21.70;46.18
69436;SHT31;56625;54.322;18.582;2023-06-14T14:59:15;21.70;45.99
69436;SHT31;56625;54.322;18.582;2023-06-14T15:01:50;21.70;45.24
69436;SHT31;56625;54.322;18.582;2023-06-14T15:04:23;21.64;44.68
69436;SHT31;56625;54.322;18.582;2023-06-14T15:06:57;21.61;44.24
69436;SHT31;56625;54.322;18.582;2023-06-14T15:09:33;21.57;44.68
69436;SHT31;56625;54.322;18.582;2023-06-14T15:12:04;21.56;44.33
69436;SHT31;56625;54.322;18.582;2023-06-14T15:14:34;21.51;44.51
69436;SHT31;56625;54.322;18.582;2023-06-14T15:17:20;21.56;45.23
69436;SHT31;56625;54.322;18.582;2023-06-14T15:19:54;21.58;45.56
69436;SHT31;56625;54.322;18.582;2023-06-14T15:22:28;21.66;45.54
69436;SHT31;56625;54.322;18.582;2023-06-14T15:24:58;21.83;45.63
69436;SHT31;56625;54.322;18.582;2023-06-14T15:27:38;22.02;44.99
69436;SHT31;56625;54.322;18.582;2023-06-14T15:31:02;22.17;43.90
69436;SHT31;56625;54.322;18.582;2023-06-14T15:34:10;22.15;44.98
69436;SHT31;56625;54.322;18.582;2023-06-14T15:37:11;22.04;45.73
69436;SHT31;56625;54.322;18.582;2023-06-14T15:40:16;21.84;43.09
69436;SHT31;56625;54.322;18.582;2023-06-14T15:42:45;21.57;43.79
69436;SHT31;56625;54.322;18.582;2023-06-14T15:45:13;21.42;45.68
69436;SHT31;56625;54.322;18.582;2023-06-14T15:47:41;21.19;48.94
69436;SHT31;56625;54.322;18.582;2023-06-14T15:50:10;20.96;51.97
69436;SHT31;56625;54.322;18.582;2023-06-14T15:52:40;20.66;54.34
69436;SHT31;56625;54.322;18.582;2023-06-14T15:55:13;20.46;55.45
69436;SHT31;56625;54.322;18.582;2023-06-14T15:57:41;20.29;56.46
69436;SHT31;56625;54.322;18.582;2023-06-14T16:00:10;20.14;57.13
69436;SHT31;56625;54.322;18.582;2023-06-14T16:02:39;20.00;57.97
69436;SHT31;56625;54.322;18.582;2023-06-14T16:05:08;19.87;59.01
69436;SHT31;56625;54.322;18.582;2023-06-14T16:07:36;19.78;59.24
69436;SHT31;56625;54.322;18.582;2023-06-14T16:10:11;19.70;59.46
69436;SHT31;56625;54.322;18.582;2023-06-14T16:12:39;19.70;59.70
69436;SHT31;56625;54.322;18.582;2023-06-14T16:15:15;19.69;60.22
69436;SHT31;56625;54.322;18.582;2023-06-14T16:17:43;19.67;60.78
69436;SHT31;56625;54.322;18.582;2023-06-14T16:20:12;19.63;61.27
69436;SHT31;56625;54.322;18.582;2023-06-14T16:22:43;19.60;61.60